Time;durP1;ratioP1;P1;durP2;ratioP2;P2;SDS_P1;SDS_P2;PMS_P1;PMS_P2;Temp;Humidity;BMP_temperature;BMP_pressure;BME280_temperature;BME280_humidity;BME280_pressure;Samples;Min_cycle;Max_cycle;Signal;HPM_P1;HPM_P2
2020/12/02 17:21:32;;;;;;;33.85;17.67;;;1.30;75.30;;;;;;3617029;39;20257;-85
2020/12/02 17:24:13;;;;;;;38.70;19.02;;;1.70;83.70;;;;;;3600784;39;20125;-89
2020/12/02 17:27:04;;;;;;;36.65;18.23;;;1.70;84.30;;;;;;3611381;39;20106;-82
2020/12/02 17:29:30;;;;;;;39.10;19.05;;;1.80;83.00;;;;;;3611240;32;20156;-81
2020/12/02 17:32:09;;;;;;;38.13;19.02;;;1.90;81.50;;;;;;3616821;39;20565;-86
2020/12/02 17:35:01;;;;;;;40.00;18.85;;;1.90;80.50;;;;;;3608531;39;20117;-87
2020/12/02 17:38:06;;;;;;;36.50;18.52;;;2.00;79.00;;;;;;3606822;39;20556;-87
2020/12/02 17:40:47;;;;;;;33.35;17.35;;;2.00;78.30;;;;;;3637289;32;20152;-86
2020/12/02 17:43:42;;;;;;;37.55;18.80;;;2.00;77.10;;;;;;3604251;39;20102;-85
2020/12/02 17:46:15;;;;;;;39.55;18.77;;;2.00;76.40;;;;;;3603023;32;20667;-89
2020/12/02 17:49:19;;;;;;;39.25;19.77;;;2.00;76.00;;;;;;3611657;32;20114;-81
2020/12/02 17:52:23;;;;;;;37.88;19.27;;;2.00;75.50;;;;;;3630692;32;20114;-81
2020/12/02 17:54:51;;;;;;;35.95;19.00;;;2.00;75.00;;;;;;3609432;32;20169;-79
2020/12/02 17:57:20;;;;;;;33.75;18.52;;;2.10;75.00;;;;;;3610631;39;20118;-78
2020/12/02 17:59:46;;;;;;;37.33;19.33;;;2.10;74.90;;;;;;3610361;32;20415;-78
2020/12/02 18:02:16;;;;;;;40.30;20.15;;;2.00;74.30;;;;;;3610771;39;20125;-80
2020/12/02 18:04:48;;;;;;;37.30;18.80;;;2.00;74.50;;;;;;3609593;32;20110;-80
2020/12/02 18:07:17;;;;;;;39.30;18.33;;;2.00;74.10;;;;;;3601477;32;20117;-80
2020/12/02 18:10:07;;;;;;;35.72;18.63;;;2.00;73.90;;;;;;3609228;39;20109;-78
2020/12/02 18:12:57;;;;;;;37.90;18.80;;;2.00;73.80;;;;;;3609339;39;20118;-80
2020/12/02 18:15:32;;;;;;;35.53;18.70;;;1.90;73.70;;;;;;3609566;39;20102;-81
2020/12/02 18:18:20;;;;;;;43.03;19.00;;;1.90;73.70;;;;;;3610155;32;20492;-86
2020/12/02 18:21:07;;;;;;;36.90;18.38;;;1.90;73.70;;;;;;3611250;39;20581;-81
2020/12/02 18:23:59;;;;;;;32.95;15.90;;;1.90;73.80;;;;;;3610795;39;20189;-82
2020/12/02 18:26:44;;;;;;;32.85;17.20;;;1.90;73.30;;;;;;3610555;39;20122;-79
2020/12/02 18:29:17;;;;;;;31.65;16.55;;;1.90;73.40;;;;;;3607398;32;20220;-79
2020/12/02 18:31:48;;;;;;;39.75;19.80;;;2.00;73.20;;;;;;3686616;32;20110;-81
2020/12/02 18:34:29;;;;;;;36.08;17.75;;;1.90;73.30;;;;;;3594383;39;20482;-82
2020/12/02 18:37:10;;;;;;;38.30;18.00;;;2.00;73.70;;;;;;3604383;39;20109;-83
2020/12/02 18:39:48;;;;;;;38.13;19.25;;;2.00;73.50;;;;;;3674638;32;20171;-80
2020/12/02 18:42:48;;;;;;;36.83;17.20;;;2.00;73.60;;;;;;3630873;32;20134;-81
2020/12/02 18:45:23;;;;;;;38.70;19.00;;;2.00;73.30;;;;;;3603615;39;20095;-77
2020/12/02 18:47:51;;;;;;;27.08;13.95;;;1.80;72.90;;;;;;3593896;39;20130;-77
2020/12/02 18:50:19;;;;;;;35.42;18.17;;;1.90;73.90;;;;;;3602699;39;20126;-82
2020/12/02 18:52:45;;;;;;;37.58;18.05;;;1.80;76.50;;;;;;3619275;39;20600;-81
2020/12/02 18:55:12;;;;;;;37.42;18.48;;;1.80;77.70;;;;;;3605084;32;20156;-81
2020/12/02 18:58:08;;;;;;;32.47;17.42;;;1.80;78.10;;;;;;3603323;39;20126;-81
2020/12/02 19:00:37;;;;;;;36.70;18.83;;;1.90;78.50;;;;;;3594481;32;20110;-81
2020/12/02 19:03:14;;;;;;;40.28;17.50;;;1.90;78.00;;;;;;3594387;32;20708;-80
2020/12/02 19:05:41;;;;;;;36.83;18.73;;;1.90;77.70;;;;;;3602756;39;20106;-80
2020/12/02 19:08:07;;;;;;;33.92;17.38;;;1.90;77.30;;;;;;3593767;39;20608;-79
2020/12/02 19:10:33;;;;;;;31.20;16.40;;;1.80;77.20;;;;;;3601996;39;20094;-82
2020/12/02 19:13:05;;;;;;;34.15;17.38;;;1.80;77.70;;;;;;3602905;39;20174;-79
2020/12/02 19:15:43;;;;;;;34.83;17.50;;;1.80;76.60;;;;;;3594299;39;20122;-79
2020/12/02 19:18:37;;;;;;;32.28;16.65;;;1.90;76.00;;;;;;3603533;39;20118;-78
2020/12/02 19:21:15;;;;;;;36.33;16.65;;;1.80;75.10;;;;;;3602422;39;20110;-78
2020/12/02 19:23:59;;;;;;;36.83;17.73;;;1.80;74.70;;;;;;3603117;39;20118;-79
2020/12/02 19:26:32;;;;;;;34.40;17.23;;;1.80;74.90;;;;;;3602014;39;20543;-79
2020/12/02 19:29:35;;;;;;;33.97;16.08;;;1.80;74.30;;;;;;3593684;32;20137;-79
2020/12/02 19:32:14;;;;;;;30.77;16.05;;;1.90;73.80;;;;;;3622142;32;20134;-81
2020/12/02 19:35:02;;;;;;;30.65;15.82;;;1.80;73.40;;;;;;3593512;39;20114;-79
2020/12/02 19:37:50;;;;;;;36.00;17.95;;;1.80;73.50;;;;;;3602100;39;20359;-79
2020/12/02 19:40:41;;;;;;;31.92;17.15;;;1.80;74.00;;;;;;3603164;39;20103;-78
2020/12/02 19:43:49;;;;;;;30.27;15.55;;;1.80;73.10;;;;;;3604070;32;20102;-79
2020/12/02 19:46:50;;;;;;;31.98;15.93;;;1.70;72.90;;;;;;3617674;32;20111;-78
2020/12/02 19:49:23;;;;;;;28.73;15.52;;;1.70;72.80;;;;;;3593996;32;20741;-78
2020/12/02 19:51:54;;;;;;;37.35;16.83;;;1.80;72.80;;;;;;3601665;39;20114;-80
2020/12/02 19:54:28;;;;;;;42.70;18.52;;;1.80;73.20;;;;;;3601517;39;20110;-79
2020/12/02 19:57:08;;;;;;;34.55;16.70;;;1.80;73.00;;;;;;3593406;39;20103;-78
2020/12/02 19:59:49;;;;;;;28.02;15.57;;;1.80;72.90;;;;;;3593563;32;20117;-79
2020/12/02 20:02:25;;;;;;;33.47;17.38;;;1.80;72.80;;;;;;3601686;39;20107;-79
2020/12/02 20:05:13;;;;;;;31.25;14.77;;;1.80;72.90;;;;;;3593413;39;20496;-79
2020/12/02 20:07:57;;;;;;;34.35;16.75;;;1.80;73.00;;;;;;3601864;39;20144;-80
2020/12/02 20:10:56;;;;;;;30.33;15.10;;;1.80;72.40;;;;;;3601497;32;20427;-79
2020/12/02 20:13:52;;;;;;;35.45;17.73;;;1.70;72.30;;;;;;3602900;39;20122;-79
2020/12/02 20:16:32;;;;;;;32.45;16.50;;;1.70;72.40;;;;;;3601985;39;20118;-79
2020/12/02 20:19:30;;;;;;;30.63;15.80;;;1.80;72.00;;;;;;3602309;32;20150;-78
2020/12/02 20:22:03;;;;;;;30.30;16.23;;;1.70;72.00;;;;;;3601872;39;20637;-78
2020/12/02 20:24:59;;;;;;;29.55;16.15;;;1.70;72.00;;;;;;3593474;32;20511;-78
